sensor_id;sensor_type;location;lat;lon;timestamp;temperature;humidity
75380;HTU21D;65641;44.714;37.756;2023-12-04T00:00:34;14.78;89.12
75380;HTU21D;65641;44.714;37.756;2023-12-04T00:01:45;14.77;89.09
75380;HTU21D;65641;44.714;37.756;2023-12-04T00:02:48;14.78;89.15
75380;HTU21D;65641;44.714;37.756;2023-12-04T00:03:51;14.75;89.15
75380;HTU21D;65641;44.714;37.756;2023-12-04T00:04:55;14.78;89.18
75380;HTU21D;65641;44.714;37.756;2023-12-04T00:06:07;14.77;89.19
75380;HTU21D;65641;44.714;37.756;2023-12-04T00:07:10;14.77;89.26
75380;HTU21D;65641;44.714;37.756;2023-12-04T00:08:13;14.77;89.25
75380;HTU21D;65641;44.714;37.756;2023-12-04T00:09:16;14.78;89.25
75380;HTU21D;65641;44.714;37.756;2023-12-04T00:10:20;14.78;89.22
75380;HTU21D;65641;44.714;37.756;2023-12-04T00:11:23;14.78;89.22
75380;HTU21D;65641;44.714;37.756;2023-12-04T00:12:26;14.79;89.17
75380;HTU21D;65641;44.714;37.756;2023-12-04T00:13:29;14.78;89.18
75380;HTU21D;65641;44.714;37.756;2023-12-04T00:14:32;14.79;89.17
75380;HTU21D;65641;44.714;37.756;2023-12-04T00:15:36;14.78;89.15
75380;HTU21D;65641;44.714;37.756;2023-12-04T00:16:39;14.78;89.14
75380;HTU21D;65641;44.714;37.756;2023-12-04T00:17:42;14.78;89.13
75380;HTU21D;65641;44.714;37.756;2023-12-04T00:18:45;14.78;89.16
75380;HTU21D;65641;44.714;37.756;2023-12-04T00:19:48;14.77;89.15
75380;HTU21D;65641;44.714;37.756;2023-12-04T00:20:51;14.78;89.17
75380;HTU21D;65641;44.714;37.756;2023-12-04T00:21:54;14.77;89.17
75380;HTU21D;65641;44.714;37.756;2023-12-04T00:22:57;14.78;89.19
75380;HTU21D;65641;44.714;37.756;2023-12-04T00:24:00;14.75;89.21
75380;HTU21D;65641;44.714;37.756;2023-12-04T00:25:05;14.78;89.21
75380;HTU21D;65641;44.714;37.756;2023-12-04T00:26:09;14.77;89.21
75380;HTU21D;65641;44.714;37.756;2023-12-04T00:27:12;14.78;89.19
75380;HTU21D;65641;44.714;37.756;2023-12-04T00:28:15;14.77;89.13
75380;HTU21D;65641;44.714;37.756;2023-12-04T00:29:18;14.78;89.20
75380;HTU21D;65641;44.714;37.756;2023-12-04T00:30:22;14.78;89.21
75380;HTU21D;65641;44.714;37.756;2023-12-04T00:31:25;14.77;89.20
75380;HTU21D;65641;44.714;37.756;2023-12-04T00:32:31;14.77;89.15
75380;HTU21D;65641;44.714;37.756;2023-12-04T00:33:34;14.77;89.18
75380;HTU21D;65641;44.714;37.756;2023-12-04T00:34:37;14.78;89.16
75380;HTU21D;65641;44.714;37.756;2023-12-04T00:35:40;14.78;89.12
75380;HTU21D;65641;44.714;37.756;2023-12-04T00:36:43;14.77;89.15
75380;HTU21D;65641;44.714;37.756;2023-12-04T00:37:46;14.77;89.05
75380;HTU21D;65641;44.714;37.756;2023-12-04T00:38:49;14.75;89.06
75380;HTU21D;65641;44.714;37.756;2023-12-04T00:39:54;14.77;89.09
75380;HTU21D;65641;44.714;37.756;2023-12-04T00:40:57;14.75;88.99
75380;HTU21D;65641;44.714;37.756;2023-12-04T00:42:00;14.75;89.02
75380;HTU21D;65641;44.714;37.756;2023-12-04T00:43:03;14.74;89.02
75380;HTU21D;65641;44.714;37.756;2023-12-04T00:44:07;14.74;89.06
75380;HTU21D;65641;44.714;37.756;2023-12-04T00:45:12;14.72;88.99
75380;HTU21D;65641;44.714;37.756;2023-12-04T00:46:15;14.72;89.05
75380;HTU21D;65641;44.714;37.756;2023-12-04T00:47:18;14.72;89.00
75380;HTU21D;65641;44.714;37.756;2023-12-04T00:48:21;14.71;88.98
75380;HTU21D;65641;44.714;37.756;2023-12-04T00:49:24;14.70;88.96
75380;HTU21D;65641;44.714;37.756;2023-12-04T00:50:28;14.70;89.04
75380;HTU21D;65641;44.714;37.756;2023-12-04T00:51:37;14.69;89.05
75380;HTU21D;65641;44.714;37.756;2023-12-04T00:52:40;14.68;89.01
75380;HTU21D;65641;44.714;37.756;2023-12-04T00:53:43;14.67;89.05
75380;HTU21D;65641;44.714;37.756;2023-12-04T00:54:46;14.66;89.06
75380;HTU21D;65641;44.714;37.756;2023-12-04T00:55:50;14.66;89.03
75380;HTU21D;65641;44.714;37.756;2023-12-04T00:56:53;14.65;89.09
75380;HTU21D;65641;44.714;37.756;2023-12-04T00:57:58;14.64;89.13
75380;HTU21D;65641;44.714;37.756;2023-12-04T00:59:01;14.62;89.10
75380;HTU21D;65641;44.714;37.756;2023-12-04T01:00:06;14.63;89.18
75380;HTU21D;65641;44.714;37.756;2023-12-04T01:01:10;14.62;89.15
75380;HTU21D;65641;44.714;37.756;2023-12-04T01:02:13;14.62;89.16
75380;HTU21D;65641;44.714;37.756;2023-12-04T01:03:16;14.60;89.12
75380;HTU21D;65641;44.714;37.756;2023-12-04T01:04:19;14.60;89.13
75380;HTU21D;65641;44.714;37.756;2023-12-04T01:05:22;14.60;89.12
75380;HTU21D;65641;44.714;37.756;2023-12-04T01:06:25;14.57;89.12
75380;HTU21D;65641;44.714;37.756;2023-12-04T01:07:28;14.58;89.05
75380;HTU21D;65641;44.714;37.756;2023-12-04T01:08:32;14.57;89.13
75380;HTU21D;65641;44.714;37.756;2023-12-04T01:09:36;14.57;89.09
75380;HTU21D;65641;44.714;37.756;2023-12-04T01:10:39;14.56;89.03
75380;HTU21D;65641;44.714;37.756;2023-12-04T01:11:42;14.56;89.09
75380;HTU21D;65641;44.714;37.756;2023-12-04T01:12:45;14.55;89.13
75380;HTU21D;65641;44.714;37.756;2023-12-04T01:13:49;14.54;89.19
75380;HTU21D;65641;44.714;37.756;2023-12-04T01:14:52;14.54;89.18
75380;HTU21D;65641;44.714;37.756;2023-12-04T01:15:55;14.54;89.15
75380;HTU21D;65641;44.714;37.756;2023-12-04T01:16:58;14.53;89.10
75380;HTU21D;65641;44.714;37.756;2023-12-04T01:18:02;14.52;89.13
75380;HTU21D;65641;44.714;37.756;2023-12-04T01:19:05;14.53;89.21
75380;HTU21D;65641;44.714;37.756;2023-12-04T01:20:08;14.51;89.18
75380;HTU21D;65641;44.714;37.756;2023-12-04T01:21:12;14.50;89.20
75380;HTU21D;65641;44.714;37.756;2023-12-04T01:22:15;14.51;89.18
75380;HTU21D;65641;44.714;37.756;2023-12-04T01:23:18;14.50;89.18
75380;HTU21D;65641;44.714;37.756;2023-12-04T01:24:21;14.50;89.18
75380;HTU21D;65641;44.714;37.756;2023-12-04T01:25:24;14.51;89.19
75380;HTU21D;65641;44.714;37.756;2023-12-04T01:26:27;14.50;89.19
75380;HTU21D;65641;44.714;37.756;2023-12-04T01:27:30;14.49;89.17
75380;HTU21D;65641;44.714;37.756;2023-12-04T01:28:33;14.47;89.32
75380;HTU21D;65641;44.714;37.756;2023-12-04T01:29:36;14.49;89.25
75380;HTU21D;65641;44.714;37.756;2023-12-04T01:30:39;14.49;89.22
75380;HTU21D;65641;44.714;37.756;2023-12-04T01:31:43;14.47;89.20
75380;HTU21D;65641;44.714;37.756;2023-12-04T01:32:46;14.47;89.21
75380;HTU21D;65641;44.714;37.756;2023-12-04T01:33:49;14.48;89.21
75380;HTU21D;65641;44.714;37.756;2023-12-04T01:34:52;14.47;89.17
75380;HTU21D;65641;44.714;37.756;2023-12-04T01:35:55;14.47;89.20
75380;HTU21D;65641;44.714;37.756;2023-12-04T01:36:58;14.45;89.21
75380;HTU21D;65641;44.714;37.756;2023-12-04T01:38:01;14.44;89.22
75380;HTU21D;65641;44.714;37.756;2023-12-04T01:39:04;14.45;89.25
75380;HTU21D;65641;44.714;37.756;2023-12-04T01:40:07;14.44;89.18
75380;HTU21D;65641;44.714;37.756;2023-12-04T01:41:11;14.44;89.15
75380;HTU21D;65641;44.714;37.756;2023-12-04T01:42:14;14.44;89.27
75380;HTU21D;65641;44.714;37.756;2023-12-04T01:43:17;14.43;89.18
75380;HTU21D;65641;44.714;37.756;2023-12-04T01:44:21;14.43;89.20
75380;HTU21D;65641;44.714;37.756;2023-12-04T01:45:24;14.44;89.21
75380;HTU21D;65641;44.714;37.756;2023-12-04T01:46:28;14.43;89.10
75380;HTU21D;65641;44.714;37.756;2023-12-04T01:47:32;14.43;89.14
75380;HTU21D;65641;44.714;37.756;2023-12-04T01:48:36;14.43;89.18
75380;HTU21D;65641;44.714;37.756;2023-12-04T01:49:40;14.43;89.17
75380;HTU21D;65641;44.714;37.756;2023-12-04T01:50:43;14.42;89.15
75380;HTU21D;65641;44.714;37.756;2023-12-04T01:51:46;14.40;89.19
75380;HTU21D;65641;44.714;37.756;2023-12-04T01:52:52;14.40;89.17
75380;HTU21D;65641;44.714;37.756;2023-12-04T01:53:59;14.41;89.20
75380;HTU21D;65641;44.714;37.756;2023-12-04T01:55:04;14.41;89.23
75380;HTU21D;65641;44.714;37.756;2023-12-04T01:56:08;14.42;89.24
75380;HTU21D;65641;44.714;37.756;2023-12-04T01:57:12;14.40;89.28
75380;HTU21D;65641;44.714;37.756;2023-12-04T01:58:15;14.39;89.25
75380;HTU21D;65641;44.714;37.756;2023-12-04T01:59:22;14.40;89.21
75380;HTU21D;65641;44.714;37.756;2023-12-04T02:00:25;14.41;89.21
75380;HTU21D;65641;44.714;37.756;2023-12-04T02:01:28;14.39;89.22
75380;HTU21D;65641;44.714;37.756;2023-12-04T02:02:32;14.40;89.26
75380;HTU21D;65641;44.714;37.756;2023-12-04T02:03:35;14.40;89.22
75380;HTU21D;65641;44.714;37.756;2023-12-04T02:04:38;14.40;89.16
75380;HTU21D;65641;44.714;37.756;2023-12-04T02:05:44;14.39;89.19
75380;HTU21D;65641;44.714;37.756;2023-12-04T02:06:47;14.40;89.20
75380;HTU21D;65641;44.714;37.756;2023-12-04T02:07:50;14.39;89.20
75380;HTU21D;65641;44.714;37.756;2023-12-04T02:08:54;14.38;89.18
75380;HTU21D;65641;44.714;37.756;2023-12-04T02:09:57;14.38;89.15
75380;HTU21D;65641;44.714;37.756;2023-12-04T02:11:00;14.38;89.17
75380;HTU21D;65641;44.714;37.756;2023-12-04T02:12:04;14.37;89.10
75380;HTU21D;65641;44.714;37.756;2023-12-04T02:13:07;14.38;89.15
75380;HTU21D;65641;44.714;37.756;2023-12-04T02:14:10;14.37;89.15
75380;HTU21D;65641;44.714;37.756;2023-12-04T02:15:13;14.37;89.09
75380;HTU21D;65641;44.714;37.756;2023-12-04T02:16:18;14.37;89.15
75380;HTU21D;65641;44.714;37.756;2023-12-04T02:17:24;14.37;89.17
75380;HTU21D;65641;44.714;37.756;2023-12-04T02:18:27;14.36;89.18
75380;HTU21D;65641;44.714;37.756;2023-12-04T02:19:31;14.36;89.09
75380;HTU21D;65641;44.714;37.756;2023-12-04T02:20:35;14.36;89.12
75380;HTU21D;65641;44.714;37.756;2023-12-04T02:21:38;14.36;89.10
75380;HTU21D;65641;44.714;37.756;2023-12-04T02:22:41;14.35;89.11
75380;HTU21D;65641;44.714;37.756;2023-12-04T02:23:49;14.35;89.15
75380;HTU21D;65641;44.714;37.756;2023-12-04T02:24:53;14.35;89.14
75380;HTU21D;65641;44.714;37.756;2023-12-04T02:26:11;14.34;89.12
75380;HTU21D;65641;44.714;37.756;2023-12-04T02:27:26;14.34;89.10
75380;HTU21D;65641;44.714;37.756;2023-12-04T02:28:32;14.34;89.16
75380;HTU21D;65641;44.714;37.756;2023-12-04T02:29:41;14.35;89.09
75380;HTU21D;65641;44.714;37.756;2023-12-04T02:30:48;14.34;89.05
75380;HTU21D;65641;44.714;37.756;2023-12-04T02:31:53;14.34;89.05
75380;HTU21D;65641;44.714;37.756;2023-12-04T02:32:58;14.33;89.15
75380;HTU21D;65641;44.714;37.756;2023-12-04T02:34:04;14.33;89.10
75380;HTU21D;65641;44.714;37.756;2023-12-04T02:35:09;14.32;89.07
75380;HTU21D;65641;44.714;37.756;2023-12-04T02:36:13;14.32;89.10
75380;HTU21D;65641;44.714;37.756;2023-12-04T02:37:17;14.32;89.12
75380;HTU21D;65641;44.714;37.756;2023-12-04T02:38:21;14.32;89.05
75380;HTU21D;65641;44.714;37.756;2023-12-04T02:39:24;14.32;89.14
75380;HTU21D;65641;44.714;37.756;2023-12-04T02:40:27;14.32;89.08
75380;HTU21D;65641;44.714;37.756;2023-12-04T02:41:30;14.30;89.12
75380;HTU21D;65641;44.714;37.756;2023-12-04T02:42:33;14.30;89.05
75380;HTU21D;65641;44.714;37.756;2023-12-04T02:43:36;14.29;89.07
75380;HTU21D;65641;44.714;37.756;2023-12-04T02:44:39;14.29;89.08
75380;HTU21D;65641;44.714;37.756;2023-12-04T02:45:42;14.28;89.05
75380;HTU21D;65641;44.714;37.756;2023-12-04T02:46:46;14.28;89.07
75380;HTU21D;65641;44.714;37.756;2023-12-04T02:47:49;14.28;89.15
75380;HTU21D;65641;44.714;37.756;2023-12-04T02:48:52;14.28;89.11
75380;HTU21D;65641;44.714;37.756;2023-12-04T02:49:55;14.27;89.08
75380;HTU21D;65641;44.714;37.756;2023-12-04T02:50:59;14.27;89.05
75380;HTU21D;65641;44.714;37.756;2023-12-04T02:52:02;14.27;89.09
75380;HTU21D;65641;44.714;37.756;2023-12-04T02:53:05;14.27;89.08
75380;HTU21D;65641;44.714;37.756;2023-12-04T02:54:08;14.27;89.03
75380;HTU21D;65641;44.714;37.756;2023-12-04T02:55:12;14.26;89.07
75380;HTU21D;65641;44.714;37.756;2023-12-04T02:56:14;14.27;89.06
75380;HTU21D;65641;44.714;37.756;2023-12-04T02:57:17;14.27;89.10
75380;HTU21D;65641;44.714;37.756;2023-12-04T02:58:20;14.26;89.08
75380;HTU21D;65641;44.714;37.756;2023-12-04T02:59:23;14.27;89.09
75380;HTU21D;65641;44.714;37.756;2023-12-04T03:00:26;14.27;89.09
75380;HTU21D;65641;44.714;37.756;2023-12-04T03:01:29;14.26;89.16
75380;HTU21D;65641;44.714;37.756;2023-12-04T03:02:32;14.26;89.12
75380;HTU21D;65641;44.714;37.756;2023-12-04T03:03:36;14.25;89.24
75380;HTU21D;65641;44.714;37.756;2023-12-04T03:04:39;14.26;89.21
75380;HTU21D;65641;44.714;37.756;2023-12-04T03:05:42;14.28;89.23
75380;HTU21D;65641;44.714;37.756;2023-12-04T03:06:45;14.28;89.25
75380;HTU21D;65641;44.714;37.756;2023-12-04T03:07:48;14.28;89.27
75380;HTU21D;65641;44.714;37.756;2023-12-04T03:08:51;14.28;89.28
75380;HTU21D;65641;44.714;37.756;2023-12-04T03:09:54;14.28;89.25
75380;HTU21D;65641;44.714;37.756;2023-12-04T03:10:57;14.29;89.22
75380;HTU21D;65641;44.714;37.756;2023-12-04T03:12:03;14.29;89.29
75380;HTU21D;65641;44.714;37.756;2023-12-04T03:13:10;14.29;89.23
75380;HTU21D;65641;44.714;37.756;2023-12-04T03:14:13;14.29;89.24
75380;HTU21D;65641;44.714;37.756;2023-12-04T03:15:27;14.30;89.26
75380;HTU21D;65641;44.714;37.756;2023-12-04T03:16:32;14.29;89.26
75380;HTU21D;65641;44.714;37.756;2023-12-04T03:17:35;14.29;89.23
75380;HTU21D;65641;44.714;37.756;2023-12-04T03:18:39;14.29;89.22
75380;HTU21D;65641;44.714;37.756;2023-12-04T03:19:42;14.29;89.28
75380;HTU21D;65641;44.714;37.756;2023-12-04T03:20:47;14.28;89.21
75380;HTU21D;65641;44.714;37.756;2023-12-04T03:21:50;14.29;89.17
75380;HTU21D;65641;44.714;37.756;2023-12-04T03:22:53;14.28;89.18
75380;HTU21D;65641;44.714;37.756;2023-12-04T03:23:56;14.28;89.13
75380;HTU21D;65641;44.714;37.756;2023-12-04T03:24:59;14.29;89.18
75380;HTU21D;65641;44.714;37.756;2023-12-04T03:26:03;14.28;89.17
75380;HTU21D;65641;44.714;37.756;2023-12-04T03:27:06;14.29;89.13
75380;HTU21D;65641;44.714;37.756;2023-12-04T03:28:11;14.28;89.11
75380;HTU21D;65641;44.714;37.756;2023-12-04T03:29:15;14.28;89.17
75380;HTU21D;65641;44.714;37.756;2023-12-04T03:30:18;14.27;89.15
75380;HTU21D;65641;44.714;37.756;2023-12-04T03:31:23;14.27;89.10
75380;HTU21D;65641;44.714;37.756;2023-12-04T03:32:26;14.27;89.07
75380;HTU21D;65641;44.714;37.756;2023-12-04T03:33:29;14.27;89.12
75380;HTU21D;65641;44.714;37.756;2023-12-04T03:34:33;14.26;89.09
75380;HTU21D;65641;44.714;37.756;2023-12-04T03:35:36;14.26;89.09
75380;HTU21D;65641;44.714;37.756;2023-12-04T03:36:39;14.26;89.10
75380;HTU21D;65641;44.714;37.756;2023-12-04T03:37:42;14.25;89.11
75380;HTU21D;65641;44.714;37.756;2023-12-04T03:38:45;14.26;89.13
75380;HTU21D;65641;44.714;37.756;2023-12-04T03:39:48;14.25;89.09
75380;HTU21D;65641;44.714;37.756;2023-12-04T03:40:51;14.26;89.10
75380;HTU21D;65641;44.714;37.756;2023-12-04T03:41:54;14.24;89.13
75380;HTU21D;65641;44.714;37.756;2023-12-04T03:42:57;14.26;89.13
75380;HTU21D;65641;44.714;37.756;2023-12-04T03:44:00;14.25;89.18
75380;HTU21D;65641;44.714;37.756;2023-12-04T03:45:03;14.25;89.12
75380;HTU21D;65641;44.714;37.756;2023-12-04T03:46:07;14.25;89.14
75380;HTU21D;65641;44.714;37.756;2023-12-04T03:47:10;14.25;89.13
75380;HTU21D;65641;44.714;37.756;2023-12-04T03:48:18;14.25;89.18
75380;HTU21D;65641;44.714;37.756;2023-12-04T03:49:21;14.26;89.21
75380;HTU21D;65641;44.714;37.756;2023-12-04T03:50:24;14.25;89.23
75380;HTU21D;65641;44.714;37.756;2023-12-04T03:51:27;14.24;89.21
75380;HTU21D;65641;44.714;37.756;2023-12-04T03:52:30;14.25;89.27
75380;HTU21D;65641;44.714;37.756;2023-12-04T03:53:36;14.27;89.30
75380;HTU21D;65641;44.714;37.756;2023-12-04T03:54:39;14.28;89.34
75380;HTU21D;65641;44.714;37.756;2023-12-04T03:55:44;14.27;89.34
75380;HTU21D;65641;44.714;37.756;2023-12-04T03:56:47;14.27;89.34
75380;HTU21D;65641;44.714;37.756;2023-12-04T03:57:51;14.28;89.31
75380;HTU21D;65641;44.714;37.756;2023-12-04T03:58:57;14.29;89.31
75380;HTU21D;65641;44.714;37.756;2023-12-04T04:00:03;14.29;89.32
75380;HTU21D;65641;44.714;37.756;2023-12-04T04:01:13;14.29;89.28
75380;HTU21D;65641;44.714;37.756;2023-12-04T04:02:16;14.30;89.35
75380;HTU21D;65641;44.714;37.756;2023-12-04T04:03:19;14.32;89.31
75380;HTU21D;65641;44.714;37.756;2023-12-04T04:04:22;14.33;89.31
75380;HTU21D;65641;44.714;37.756;2023-12-04T04:05:25;14.33;89.30
75380;HTU21D;65641;44.714;37.756;2023-12-04T04:06:29;14.34;89.27
75380;HTU21D;65641;44.714;37.756;2023-12-04T04:07:32;14.34;89.28
75380;HTU21D;65641;44.714;37.756;2023-12-04T04:08:35;14.35;89.30
75380;HTU21D;65641;44.714;37.756;2023-12-04T04:09:38;14.36;89.29
75380;HTU21D;65641;44.714;37.756;2023-12-04T04:10:41;14.35;89.25
75380;HTU21D;65641;44.714;37.756;2023-12-04T04:11:47;14.37;89.25
75380;HTU21D;65641;44.714;37.756;2023-12-04T04:12:50;14.37;89.19
75380;HTU21D;65641;44.714;37.756;2023-12-04T04:13:54;14.36;89.20
75380;HTU21D;65641;44.714;37.756;2023-12-04T04:14:57;14.37;89.18
75380;HTU21D;65641;44.714;37.756;2023-12-04T04:16:06;14.38;89.18
75380;HTU21D;65641;44.714;37.756;2023-12-04T04:17:10;14.39;89.18
75380;HTU21D;65641;44.714;37.756;2023-12-04T04:18:13;14.39;89.13
75380;HTU21D;65641;44.714;37.756;2023-12-04T04:19:16;14.40;89.09
75380;HTU21D;65641;44.714;37.756;2023-12-04T04:20:20;14.39;89.05
75380;HTU21D;65641;44.714;37.756;2023-12-04T04:21:23;14.39;89.02
75380;HTU21D;65641;44.714;37.756;2023-12-04T04:22:27;14.39;89.02
75380;HTU21D;65641;44.714;37.756;2023-12-04T04:23:30;14.39;89.03
75380;HTU21D;65641;44.714;37.756;2023-12-04T04:24:33;14.39;89.01
75380;HTU21D;65641;44.714;37.756;2023-12-04T04:25:36;14.39;89.01
75380;HTU21D;65641;44.714;37.756;2023-12-04T04:26:39;14.38;88.99
75380;HTU21D;65641;44.714;37.756;2023-12-04T04:27:42;14.40;88.99
75380;HTU21D;65641;44.714;37.756;2023-12-04T04:28:45;14.39;89.02
75380;HTU21D;65641;44.714;37.756;2023-12-04T04:29:48;14.38;89.03
75380;HTU21D;65641;44.714;37.756;2023-12-04T04:30:51;14.40;89.07
75380;HTU21D;65641;44.714;37.756;2023-12-04T04:31:54;14.39;89.05
75380;HTU21D;65641;44.714;37.756;2023-12-04T04:32:57;14.40;89.09
75380;HTU21D;65641;44.714;37.756;2023-12-04T04:34:01;14.39;89.09
75380;HTU21D;65641;44.714;37.756;2023-12-04T04:35:04;14.40;89.13
75380;HTU21D;65641;44.714;37.756;2023-12-04T04:36:09;14.40;89.18
75380;HTU21D;65641;44.714;37.756;2023-12-04T04:37:12;14.40;89.15
75380;HTU21D;65641;44.714;37.756;2023-12-04T04:38:15;14.42;89.13
75380;HTU21D;65641;44.714;37.756;2023-12-04T04:39:19;14.42;89.16
75380;HTU21D;65641;44.714;37.756;2023-12-04T04:40:21;14.43;89.09
75380;HTU21D;65641;44.714;37.756;2023-12-04T04:41:24;14.43;89.05
75380;HTU21D;65641;44.714;37.756;2023-12-04T04:42:27;14.44;89.08
75380;HTU21D;65641;44.714;37.756;2023-12-04T04:43:30;14.45;89.06
75380;HTU21D;65641;44.714;37.756;2023-12-04T04:44:35;14.45;89.06
75380;HTU21D;65641;44.714;37.756;2023-12-04T04:45:38;14.47;89.09
75380;HTU21D;65641;44.714;37.756;2023-12-04T04:46:41;14.47;89.09
75380;HTU21D;65641;44.714;37.756;2023-12-04T04:47:44;14.49;89.09
75380;HTU21D;65641;44.714;37.756;2023-12-04T04:48:47;14.50;89.12
75380;HTU21D;65641;44.714;37.756;2023-12-04T04:49:50;14.49;89.13
75380;HTU21D;65641;44.714;37.756;2023-12-04T04:50:53;14.51;89.07
75380;HTU21D;65641;44.714;37.756;2023-12-04T04:51:56;14.52;89.09
75380;HTU21D;65641;44.714;37.756;2023-12-04T04:53:00;14.52;89.09
75380;HTU21D;65641;44.714;37.756;2023-12-04T04:54:03;14.53;89.05
75380;HTU21D;65641;44.714;37.756;2023-12-04T04:55:06;14.53;89.07
75380;HTU21D;65641;44.714;37.756;2023-12-04T04:56:10;14.54;89.05
75380;HTU21D;65641;44.714;37.756;2023-12-04T04:57:13;14.54;89.02
75380;HTU21D;65641;44.714;37.756;2023-12-04T04:58:17;14.56;89.00
75380;HTU21D;65641;44.714;37.756;2023-12-04T04:59:20;14.58;89.02
75380;HTU21D;65641;44.714;37.756;2023-12-04T05:00:25;14.58;89.03
75380;HTU21D;65641;44.714;37.756;2023-12-04T05:01:29;14.59;89.04
75380;HTU21D;65641;44.714;37.756;2023-12-04T05:02:32;14.60;88.98
75380;HTU21D;65641;44.714;37.756;2023-12-04T05:03:37;14.60;88.97
75380;HTU21D;65641;44.714;37.756;2023-12-04T05:04:40;14.63;89.02
75380;HTU21D;65641;44.714;37.756;2023-12-04T05:05:43;14.63;88.99
75380;HTU21D;65641;44.714;37.756;2023-12-04T05:06:46;14.64;88.96
75380;HTU21D;65641;44.714;37.756;2023-12-04T05:07:49;14.65;88.89
75380;HTU21D;65641;44.714;37.756;2023-12-04T05:08:52;14.65;88.90
75380;HTU21D;65641;44.714;37.756;2023-12-04T05:09:55;14.66;88.89
75380;HTU21D;65641;44.714;37.756;2023-12-04T05:10:58;14.66;88.83
75380;HTU21D;65641;44.714;37.756;2023-12-04T05:12:02;14.67;88.67
75380;HTU21D;65641;44.714;37.756;2023-12-04T05:13:05;14.66;88.73
75380;HTU21D;65641;44.714;37.756;2023-12-04T05:14:08;14.66;88.39
75380;HTU21D;65641;44.714;37.756;2023-12-04T05:15:11;14.64;88.42
75380;HTU21D;65641;44.714;37.756;2023-12-04T05:16:14;14.64;88.28
75380;HTU21D;65641;44.714;37.756;2023-12-04T05:17:17;14.60;88.38
75380;HTU21D;65641;44.714;37.756;2023-12-04T05:18:21;14.59;88.27
75380;HTU21D;65641;44.714;37.756;2023-12-04T05:19:24;14.56;88.30
75380;HTU21D;65641;44.714;37.756;2023-12-04T05:20:27;14.55;88.20
75380;HTU21D;65641;44.714;37.756;2023-12-04T05:21:30;14.54;88.31
75380;HTU21D;65641;44.714;37.756;2023-12-04T05:22:34;14.52;88.34
75380;HTU21D;65641;44.714;37.756;2023-12-04T05:23:38;14.50;88.31
75380;HTU21D;65641;44.714;37.756;2023-12-04T05:24:41;14.48;88.34
75380;HTU21D;65641;44.714;37.756;2023-12-04T05:25:44;14.45;88.38
75380;HTU21D;65641;44.714;37.756;2023-12-04T05:26:52;14.45;88.47
75380;HTU21D;65641;44.714;37.756;2023-12-04T05:27:55;14.43;88.47
75380;HTU21D;65641;44.714;37.756;2023-12-04T05:28:58;14.42;88.49
75380;HTU21D;65641;44.714;37.756;2023-12-04T05:30:01;14.42;88.49
75380;HTU21D;65641;44.714;37.756;2023-12-04T05:31:05;14.39;88.46
75380;HTU21D;65641;44.714;37.756;2023-12-04T05:32:08;14.39;88.42
75380;HTU21D;65641;44.714;37.756;2023-12-04T05:33:11;14.38;88.44
75380;HTU21D;65641;44.714;37.756;2023-12-04T05:34:14;14.36;88.47
75380;HTU21D;65641;44.714;37.756;2023-12-04T05:35:17;14.36;88.47
75380;HTU21D;65641;44.714;37.756;2023-12-04T05:36:21;14.35;88.42
75380;HTU21D;65641;44.714;37.756;2023-12-04T05:37:24;14.34;88.36
75380;HTU21D;65641;44.714;37.756;2023-12-04T05:38:27;14.33;88.41
75380;HTU21D;65641;44.714;37.756;2023-12-04T05:39:30;14.32;88.38
75380;HTU21D;65641;44.714;37.756;2023-12-04T05:40:33;14.30;88.43
75380;HTU21D;65641;44.714;37.756;2023-12-04T05:41:36;14.29;88.49
75380;HTU21D;65641;44.714;37.756;2023-12-04T05:42:39;14.27;88.48
75380;HTU21D;65641;44.714;37.756;2023-12-04T05:43:42;14.26;88.55
75380;HTU21D;65641;44.714;37.756;2023-12-04T05:44:45;14.26;88.57
75380;HTU21D;65641;44.714;37.756;2023-12-04T05:45:48;14.25;88.56
75380;HTU21D;65641;44.714;37.756;2023-12-04T05:46:54;14.25;88.57
75380;HTU21D;65641;44.714;37.756;2023-12-04T05:47:57;14.24;88.52
75380;HTU21D;65641;44.714;37.756;2023-12-04T05:49:00;14.24;88.50
75380;HTU21D;65641;44.714;37.756;2023-12-04T05:50:03;14.24;88.56
75380;HTU21D;65641;44.714;37.756;2023-12-04T05:51:07;14.22;88.52
75380;HTU21D;65641;44.714;37.756;2023-12-04T05:52:10;14.23;88.47
75380;HTU21D;65641;44.714;37.756;2023-12-04T05:53:13;14.21;88.38
75380;HTU21D;65641;44.714;37.756;2023-12-04T05:54:16;14.20;88.40
75380;HTU21D;65641;44.714;37.756;2023-12-04T05:55:20;14.20;88.37
75380;HTU21D;65641;44.714;37.756;2023-12-04T05:56:23;14.17;88.38
75380;HTU21D;65641;44.714;37.756;2023-12-04T05:57:26;14.17;88.24
75380;HTU21D;65641;44.714;37.756;2023-12-04T05:58:29;14.15;88.29
75380;HTU21D;65641;44.714;37.756;2023-12-04T05:59:32;14.14;88.26
75380;HTU21D;65641;44.714;37.756;2023-12-04T06:00:35;14.11;88.13
75380;HTU21D;65641;44.714;37.756;2023-12-04T06:01:39;14.11;88.05
75380;HTU21D;65641;44.714;37.756;2023-12-04T06:02:42;14.08;88.08
75380;HTU21D;65641;44.714;37.756;2023-12-04T06:03:46;14.06;87.80
75380;HTU21D;65641;44.714;37.756;2023-12-04T06:04:49;14.03;87.93
75380;HTU21D;65641;44.714;37.756;2023-12-04T06:05:52;14.01;87.87
75380;HTU21D;65641;44.714;37.756;2023-12-04T06:06:59;13.97;87.75
75380;HTU21D;65641;44.714;37.756;2023-12-04T06:08:03;13.95;87.72
75380;HTU21D;65641;44.714;37.756;2023-12-04T06:09:06;13.92;87.61
75380;HTU21D;65641;44.714;37.756;2023-12-04T06:10:09;13.89;87.67
75380;HTU21D;65641;44.714;37.756;2023-12-04T06:11:13;13.85;87.64
75380;HTU21D;65641;44.714;37.756;2023-12-04T06:12:16;13.81;87.50
75380;HTU21D;65641;44.714;37.756;2023-12-04T06:13:19;13.78;87.53
75380;HTU21D;65641;44.714;37.756;2023-12-04T06:14:22;13.75;87.50
75380;HTU21D;65641;44.714;37.756;2023-12-04T06:15:25;13.71;87.44
75380;HTU21D;65641;44.714;37.756;2023-12-04T06:16:29;13.69;87.35
75380;HTU21D;65641;44.714;37.756;2023-12-04T06:17:32;13.66;87.44
75380;HTU21D;65641;44.714;37.756;2023-12-04T06:18:35;13.63;87.44
75380;HTU21D;65641;44.714;37.756;2023-12-04T06:19:38;13.61;87.33
75380;HTU21D;65641;44.714;37.756;2023-12-04T06:20:41;13.59;87.37
75380;HTU21D;65641;44.714;37.756;2023-12-04T06:21:44;13.56;87.41
75380;HTU21D;65641;44.714;37.756;2023-12-04T06:22:48;13.53;87.43
75380;HTU21D;65641;44.714;37.756;2023-12-04T06:23:51;13.53;87.41
75380;HTU21D;65641;44.714;37.756;2023-12-04T06:24:54;13.51;87.44
75380;HTU21D;65641;44.714;37.756;2023-12-04T06:25:58;13.47;87.19
75380;HTU21D;65641;44.714;37.756;2023-12-04T06:27:01;13.44;87.26
75380;HTU21D;65641;44.714;37.756;2023-12-04T06:28:05;13.41;87.19
75380;HTU21D;65641;44.714;37.756;2023-12-04T06:29:08;13.41;87.26
75380;HTU21D;65641;44.714;37.756;2023-12-04T06:30:12;13.37;87.32